Time;durP1;ratioP1;P1;durP2;ratioP2;P2;SDS_P1;SDS_P2;PMS_P1;PMS_P2;Temp;Humidity;BMP_temperature;BMP_pressure;BME280_temperature;BME280_humidity;BME280_pressure;Samples;Min_cycle;Max_cycle;Signal;HPM_P1;HPM_P2
2022/03/11 00:01:31;;;;;;;;;;;;;;;;;;5017261;28;19969;-59
2022/03/11 00:03:56;;;;;;;;;;;;;;;;;;5012436;28;19935;-59
2022/03/11 00:06:21;;;;;;;;;;;;;;;;;;5017690;28;20388;-59
2022/03/11 00:08:47;;;;;;;;;;;;;;;;;;5017747;28;20440;-60
2022/03/11 00:11:12;;;;;;;;;;;;;;;;;;5013523;28;20017;-60
2022/03/11 00:13:37;;;;;;;;;;;;;;;;;;5010485;28;19936;-60
2022/03/11 00:16:02;;;;;;;;;;;;;;;;;;5009982;28;20403;-59
2022/03/11 00:18:27;;;;;;;;;;;;;;;;;;5014320;28;20021;-59
2022/03/11 00:20:52;;;;;;;;;;;;;;;;;;5016768;28;20347;-59
2022/03/11 00:23:18;;;;;;;;;;;;;;;;;;5016335;28;19928;-59
2022/03/11 00:25:43;;;;;;;;;;;;;;;;;;5014557;28;20913;-58
2022/03/11 00:28:08;;;;;;;;;;;;;;;;;;5014810;28;20426;-59
2022/03/11 00:30:33;;;;;;;;;;;;;;;;;;5012789;28;19917;-58
2022/03/11 00:32:58;;;;;;;;;;;;;;;;;;5012956;28;19929;-58
2022/03/11 00:35:23;;;;;;;;;;;;;;;;;;5016313;28;19917;-59
2022/03/11 00:37:48;;;;;;;;;;;;;;;;;;5010754;28;19921;-59
2022/03/11 00:40:14;;;;;;;;;;;;;;;;;;5012632;28;20464;-59
2022/03/11 00:42:39;;;;;;;;;;;;;;;;;;5007479;28;19921;-59
2022/03/11 00:45:04;;;;;;;;;;;;;;;;;;5017178;28;19917;-59
2022/03/11 00:47:29;;;;;;;;;;;;;;;;;;5013996;28;20333;-59
2022/03/11 00:49:54;;;;;;;;;;;;;;;;;;5018846;28;19917;-59
2022/03/11 00:52:19;;;;;;;;;;;;;;;;;;5017811;28;19925;-59
2022/03/11 00:54:45;;;;;;;;;;;;;;;;;;5016274;28;20502;-59
2022/03/11 00:57:10;;;;;;;;;;;;;;;;;;5014701;28;19921;-59
2022/03/11 00:59:35;;;;;;;;;;;;;;;;;;5013714;28;19917;-59
2022/03/11 01:02:00;;;;;;;;;;;;;;;;;;5012413;28;19918;-59
2022/03/11 01:04:25;;;;;;;;;;;;;;;;;;5014088;28;19921;-59
2022/03/11 01:06:50;;;;;;;;;;;;;;;;;;5009322;28;19971;-59
2022/03/11 01:09:15;;;;;;;;;;;;;;;;;;5016687;28;19920;-59
2022/03/11 01:11:41;;;;;;;;;;;;;;;;;;5011799;28;19921;-59
2022/03/11 01:14:06;;;;;;;;;;;;;;;;;;5012275;28;20379;-59
2022/03/11 01:16:31;;;;;;;;;;;;;;;;;;5020058;28;20039;-59
2022/03/11 01:18:56;;;;;;;;;;;;;;;;;;5015819;28;20385;-59
2022/03/11 01:21:21;;;;;;;;;;;;;;;;;;5013710;28;19921;-59
2022/03/11 01:23:46;;;;;;;;;;;;;;;;;;5014528;28;19979;-60
2022/03/11 01:34:23;;;;;;;;;;;;;;;;;;5014397;28;19983;-58
2022/03/11 01:36:48;;;;;;;;;;;;;;;;;;5016274;28;19925;-58
2022/03/11 01:39:14;;;;;;;;;;;;;;;;;;5010241;28;19929;-58
2022/03/11 01:41:39;;;;;;;;;;;;;;;;;;5015528;28;19996;-58
2022/03/11 01:44:04;;;;;;;;;;;;;;;;;;5016850;28;19923;-58
2022/03/11 01:46:29;;;;;;;;;;;;;;;;;;5014862;28;19918;-58
2022/03/11 01:48:55;;;;;;;;;;;;;;;;;;5018732;28;19925;-58
2022/03/11 01:51:20;;;;;;;;;;;;;;;;;;5015857;28;20396;-58
2022/03/11 01:53:45;;;;;;;;;;;;;;;;;;5016114;28;19931;-57
2022/03/11 01:56:10;;;;;;;;;;;;;;;;;;5013164;28;19971;-58
2022/03/11 01:58:35;;;;;;;;;;;;;;;;;;5012901;28;19921;-58
2022/03/11 02:01:02;;;;;;;;;;;;;;;;;;5014139;28;19925;-58
2022/03/11 02:03:27;;;;;;;;;;;;;;;;;;5014011;28;19953;-58
2022/03/11 02:05:52;;;;;;;;;;;;;;;;;;5011307;28;19960;-58
2022/03/11 02:08:18;;;;;;;;;;;;;;;;;;5013704;28;19929;-58
2022/03/11 02:10:43;;;;;;;;;;;;;;;;;;5018674;28;19925;-58
2022/03/11 02:13:08;;;;;;;;;;;;;;;;;;5017230;28;20622;-58
2022/03/11 02:15:33;;;;;;;;;;;;;;;;;;5019207;28;20347;-58
2022/03/11 02:17:58;;;;;;;;;;;;;;;;;;5018154;28;19950;-59
2022/03/11 02:20:24;;;;;;;;;;;;;;;;;;5017222;28;19976;-58
2022/03/11 02:22:49;;;;;;;;;;;;;;;;;;5020505;28;20397;-59
2022/03/11 02:25:14;;;;;;;;;;;;;;;;;;5017612;28;19917;-59
2022/03/11 02:27:42;;;;;;;;;;;;;;;;;;5019288;28;19967;-58
2022/03/11 02:30:07;;;;;;;;;;;;;;;;;;5018156;28;19917;-59
2022/03/11 02:32:32;;;;;;;;;;;;;;;;;;5017602;28;19932;-58
2022/03/11 02:34:57;;;;;;;;;;;;;;;;;;5016856;28;19921;-58
2022/03/11 02:37:22;;;;;;;;;;;;;;;;;;5018757;28;20400;-58
2022/03/11 02:39:48;;;;;;;;;;;;;;;;;;5018331;28;19922;-59
2022/03/11 02:42:13;;;;;;;;;;;;;;;;;;5016549;28;19918;-59
2022/03/11 02:44:39;;;;;;;;;;;;;;;;;;5021150;28;19918;-58
2022/03/11 02:47:04;;;;;;;;;;;;;;;;;;5014490;28;19922;-57
2022/03/11 02:49:29;;;;;;;;;;;;;;;;;;5015575;28;20366;-57
2022/03/11 02:51:56;;;;;;;;;;;;;;;;;;5017440;28;20372;-58
2022/03/11 02:54:21;;;;;;;;;;;;;;;;;;5017071;28;20005;-58
2022/03/11 02:56:46;;;;;;;;;;;;;;;;;;5016063;28;20020;-58
2022/03/11 02:59:11;;;;;;;;;;;;;;;;;;5014493;28;19922;-58
2022/03/11 03:01:37;;;;;;;;;;;;;;;;;;5019336;28;20393;-59
2022/03/11 03:04:02;;;;;;;;;;;;;;;;;;5020942;28;20006;-58
2022/03/11 03:06:27;;;;;;;;;;;;;;;;;;5016751;28;19987;-58
2022/03/11 03:08:52;;;;;;;;;;;;;;;;;;5018793;28;19925;-56
2022/03/11 03:11:18;;;;;;;;;;;;;;;;;;5014344;28;19917;-57
2022/03/11 03:13:43;;;;;;;;;;;;;;;;;;5014005;28;19928;-58
2022/03/11 03:16:08;;;;;;;;;;;;;;;;;;5012523;28;19918;-59
2022/03/11 03:18:34;;;;;;;;;;;;;;;;;;5014987;28;19927;-58
2022/03/11 03:20:59;;;;;;;;;;;;;;;;;;5017409;28;20352;-59
2022/03/11 03:23:26;;;;;;;;;;;;;;;;;;5016960;28;19927;-58
2022/03/11 03:25:51;;;;;;;;;;;;;;;;;;5016379;28;19989;-59
2022/03/11 03:28:16;;;;;;;;;;;;;;;;;;5018641;28;19975;-59
2022/03/11 03:30:41;;;;;;;;;;;;;;;;;;5016334;28;20400;-58
2022/03/11 03:33:06;;;;;;;;;;;;;;;;;;5014817;28;19976;-58
2022/03/11 03:35:31;;;;;;;;;;;;;;;;;;5017179;28;19976;-59
2022/03/11 03:37:57;;;;;;;;;;;;;;;;;;5014820;28;20395;-58
2022/03/11 03:40:22;;;;;;;;;;;;;;;;;;5013750;28;19925;-58
2022/03/11 03:42:47;;;;;;;;;;;;;;;;;;5015619;28;20365;-58
2022/03/11 03:45:12;;;;;;;;;;;;;;;;;;5014828;28;19944;-58
2022/03/11 03:47:37;;;;;;;;;;;;;;;;;;5016717;28;20389;-58
2022/03/11 03:50:02;;;;;;;;;;;;;;;;;;5019442;28;19917;-58
2022/03/11 03:52:28;;;;;;;;;;;;;;;;;;5016824;28;19937;-58
2022/03/11 03:54:53;;;;;;;;;;;;;;;;;;5018006;28;19947;-58
2022/03/11 03:57:19;;;;;;;;;;;;;;;;;;5016587;28;20392;-59
2022/03/11 03:59:44;;;;;;;;;;;;;;;;;;5015340;28;19925;-58
2022/03/11 04:02:09;;;;;;;;;;;;;;;;;;5016263;28;19975;-58
2022/03/11 04:04:34;;;;;;;;;;;;;;;;;;5016067;28;19922;-58
2022/03/11 04:07:00;;;;;;;;;;;;;;;;;;5018546;28;20508;-58
2022/03/11 04:09:25;;;;;;;;;;;;;;;;;;5012704;28;19948;-58
2022/03/11 04:11:50;;;;;;;;;;;;;;;;;;5015084;28;20466;-58
2022/03/11 04:14:15;;;;;;;;;;;;;;;;;;5002434;28;19936;-59
2022/03/11 04:16:41;;;;;;;;;;;;;;;;;;5019865;28;19931;-58
2022/03/11 04:19:06;;;;;;;;;;;;;;;;;;5015569;28;19918;-58
2022/03/11 04:21:31;;;;;;;;;;;;;;;;;;5015403;28;19925;-58
2022/03/11 04:23:56;;;;;;;;;;;;;;;;;;5015401;28;20396;-58
2022/03/11 04:26:21;;;;;;;;;;;;;;;;;;5013144;28;19917;-59
2022/03/11 04:28:47;;;;;;;;;;;;;;;;;;5016798;28;19925;-59
2022/03/11 04:31:12;;;;;;;;;;;;;;;;;;5019833;28;19917;-59
2022/03/11 04:33:37;;;;;;;;;;;;;;;;;;5017132;28;20008;-60
2022/03/11 04:36:03;;;;;;;;;;;;;;;;;;5016661;28;20300;-58
2022/03/11 04:38:28;;;;;;;;;;;;;;;;;;5015326;28;19918;-58
2022/03/11 04:40:53;;;;;;;;;;;;;;;;;;5018910;28;19924;-58
2022/03/11 04:43:18;;;;;;;;;;;;;;;;;;5020239;28;20011;-58
2022/03/11 04:45:43;;;;;;;;;;;;;;;;;;5013542;28;19963;-58
2022/03/11 04:48:08;;;;;;;;;;;;;;;;;;5015179;28;20024;-59
2022/03/11 04:50:34;;;;;;;;;;;;;;;;;;5020365;28;20006;-59
2022/03/11 04:52:59;;;;;;;;;;;;;;;;;;5014665;28;19948;-59
2022/03/11 04:55:24;;;;;;;;;;;;;;;;;;5016053;28;19968;-57
2022/03/11 04:57:49;;;;;;;;;;;;;;;;;;5016055;28;19921;-58
2022/03/11 05:00:14;;;;;;;;;;;;;;;;;;5017395;28;19968;-58
2022/03/11 05:02:44;;;;;;;;;;;;;;;;;;5018296;28;20408;-58
2022/03/11 05:05:10;;;;;;;;;;;;;;;;;;5016041;28;19922;-58
2022/03/11 05:07:35;;;;;;;;;;;;;;;;;;5012399;28;19921;-58
2022/03/11 05:10:01;;;;;;;;;;;;;;;;;;5011836;28;20436;-58
2022/03/11 05:12:26;;;;;;;;;;;;;;;;;;5015452;28;19968;-58
2022/03/11 05:14:52;;;;;;;;;;;;;;;;;;5017218;28;20325;-58
2022/03/11 05:17:17;;;;;;;;;;;;;;;;;;5012101;28;19925;-58
2022/03/11 05:19:42;;;;;;;;;;;;;;;;;;5015732;28;19944;-58
2022/03/11 05:22:07;;;;;;;;;;;;;;;;;;5015231;28;20411;-58
2022/03/11 05:24:32;;;;;;;;;;;;;;;;;;5016475;28;19917;-58
2022/03/11 05:26:57;;;;;;;;;;;;;;;;;;5012877;28;20000;-58
2022/03/11 05:29:23;;;;;;;;;;;;;;;;;;5015931;28;20542;-59
2022/03/11 05:31:48;;;;;;;;;;;;;;;;;;5018921;28;19917;-58
2022/03/11 05:34:13;;;;;;;;;;;;;;;;;;5017575;28;20479;-58
2022/03/11 05:36:38;;;;;;;;;;;;;;;;;;5015362;28;20020;-58
2022/03/11 05:39:03;;;;;;;;;;;;;;;;;;5011710;28;19918;-60
2022/03/11 05:41:29;;;;;;;;;;;;;;;;;;5018070;28;19917;-58
2022/03/11 05:43:54;;;;;;;;;;;;;;;;;;5013377;28;20481;-59
2022/03/11 05:46:19;;;;;;;;;;;;;;;;;;5015058;28;19997;-59
2022/03/11 05:48:44;;;;;;;;;;;;;;;;;;5015677;28;19991;-58
2022/03/11 05:51:09;;;;;;;;;;;;;;;;;;5014571;28;19921;-59
2022/03/11 05:53:34;;;;;;;;;;;;;;;;;;5016834;28;20399;-59
2022/03/11 05:56:00;;;;;;;;;;;;;;;;;;5014366;28;19928;-59
2022/03/11 05:58:25;;;;;;;;;;;;;;;;;;5015172;28;19921;-59
2022/03/11 06:00:50;;;;;;;;;;;;;;;;;;5013979;28;19940;-58
2022/03/11 06:03:15;;;;;;;;;;;;;;;;;;5017649;28;19925;-58
2022/03/11 06:05:40;;;;;;;;;;;;;;;;;;5013072;28;20332;-59
2022/03/11 06:08:05;;;;;;;;;;;;;;;;;;5008833;28;19925;-59
2022/03/11 06:10:33;;;;;;;;;;;;;;;;;;5011692;28;20132;-59
2022/03/11 06:12:58;;;;;;;;;;;;;;;;;;5013726;28;19962;-59
2022/03/11 06:15:23;;;;;;;;;;;;;;;;;;5029790;28;20435;-59
2022/03/11 06:17:48;;;;;;;;;;;;;;;;;;5014030;28;20044;-59
2022/03/11 06:20:14;;;;;;;;;;;;;;;;;;5014753;28;19917;-59
2022/03/11 06:22:39;;;;;;;;;;;;;;;;;;5016320;28;19921;-59
2022/03/11 06:25:04;;;;;;;;;;;;;;;;;;5015607;28;19925;-59
2022/03/11 06:27:29;;;;;;;;;;;;;;;;;;5015976;28;19943;-57
2022/03/11 06:29:54;;;;;;;;;;;;;;;;;;5012885;28;19928;-59
2022/03/11 06:32:19;;;;;;;;;;;;;;;;;;5011271;28;19921;-59
2022/03/11 06:34:45;;;;;;;;;;;;;;;;;;5013597;28;19953;-56
2022/03/11 06:37:10;;;;;;;;;;;;;;;;;;5010281;28;19918;-59
2022/03/11 06:39:35;;;;;;;;;;;;;;;;;;5014927;28;19926;-59
2022/03/11 06:42:00;;;;;;;;;;;;;;;;;;5015272;28;20379;-59
2022/03/11 06:44:25;;;;;;;;;;;;;;;;;;5015318;28;19975;-59
2022/03/11 06:46:50;;;;;;;;;;;;;;;;;;5007571;28;19940;-59
2022/03/11 06:49:16;;;;;;;;;;;;;;;;;;5016806;28;20082;-60
2022/03/11 06:51:41;;;;;;;;;;;;;;;;;;5016205;28;19920;-60
2022/03/11 06:54:07;;;;;;;;;;;;;;;;;;5015192;28;19992;-59
2022/03/11 06:56:32;;;;;;;;;;;;;;;;;;5020444;28;19917;-60
2022/03/11 06:58:57;;;;;;;;;;;;;;;;;;5017302;28;20542;-58
2022/03/11 07:01:24;;;;;;;;;;;;;;;;;;5018307;28;20427;-43
2022/03/11 07:03:49;;;;;;;;;;;;;;;;;;5016835;28;19921;-49
2022/03/11 07:06:15;;;;;;;;;;;;;;;;;;5016312;28;20300;-51
2022/03/11 07:08:40;;;;;;;;;;;;;;;;;;5018361;28;19917;-42
2022/03/11 07:11:05;;;;;;;;;;;;;;;;;;5016277;28;19917;-51
2022/03/11 07:13:30;;;;;;;;;;;;;;;;;;5017560;28;20307;-53
2022/03/11 07:15:56;;;;;;;;;;;;;;;;;;5014543;28;19921;-47
2022/03/11 07:18:21;;;;;;;;;;;;;;;;;;5014696;28;20548;-48
2022/03/11 07:20:47;;;;;;;;;;;;;;;;;;5020221;28;20740;-46
2022/03/11 07:23:12;;;;;;;;;;;;;;;;;;5016756;28;19924;-50
2022/03/11 07:25:38;;;;;;;;;;;;;;;;;;5018215;28;19925;-48
2022/03/11 07:28:03;;;;;;;;;;;;;;;;;;5018499;28;20344;-46
2022/03/11 07:30:28;;;;;;;;;;;;;;;;;;5014267;28;19983;-49
2022/03/11 07:32:54;;;;;;;;;;;;;;;;;;5016698;28;19932;-51
2022/03/11 07:35:19;;;;;;;;;;;;;;;;;;5020011;28;20331;-50
2022/03/11 07:37:44;;;;;;;;;;;;;;;;;;5012916;28;20289;-51
2022/03/11 07:40:11;;;;;;;;;;;;;;;;;;5021424;28;20380;-50
2022/03/11 07:42:36;;;;;;;;;;;;;;;;;;5019840;28;19917;-48
2022/03/11 07:45:02;;;;;;;;;;;;;;;;;;5017725;28;19940;-51
2022/03/11 07:47:28;;;;;;;;;;;;;;;;;;5017896;28;20504;-46
2022/03/11 07:49:53;;;;;;;;;;;;;;;;;;5016135;28;20395;-48
2022/03/11 07:52:21;;;;;;;;;;;;;;;;;;5018691;28;20043;-51
2022/03/11 07:54:46;;;;;;;;;;;;;;;;;;5015525;28;19929;-49
2022/03/11 07:57:11;;;;;;;;;;;;;;;;;;5012905;28;20013;-50
2022/03/11 07:59:37;;;;;;;;;;;;;;;;;;5017284;28;19918;-50
2022/03/11 08:02:02;;;;;;;;;;;;;;;;;;5017820;28;19939;-47
2022/03/11 08:04:29;;;;;;;;;;;;;;;;;;5019076;28;20432;-52
2022/03/11 08:06:54;;;;;;;;;;;;;;;;;;5014277;28;19936;-47
2022/03/11 08:09:19;;;;;;;;;;;;;;;;;;5015653;28;19917;-51
2022/03/11 08:11:44;;;;;;;;;;;;;;;;;;5014606;28;19971;-47
2022/03/11 08:14:10;;;;;;;;;;;;;;;;;;5015379;28;19943;-50
2022/03/11 08:16:35;;;;;;;;;;;;;;;;;;5013306;28;19917;-49
2022/03/11 08:19:02;;;;;;;;;;;;;;;;;;5016303;28;19917;-46
2022/03/11 08:21:27;;;;;;;;;;;;;;;;;;5019479;28;19943;-47
2022/03/11 08:23:52;;;;;;;;;;;;;;;;;;5014477;28;20424;-50
2022/03/11 08:26:17;;;;;;;;;;;;;;;;;;5016575;28;20441;-47
2022/03/11 08:28:43;;;;;;;;;;;;;;;;;;5016473;28;19917;-51
2022/03/11 08:31:08;;;;;;;;;;;;;;;;;;5018354;28;19917;-47
2022/03/11 08:33:36;;;;;;;;;;;;;;;;;;5013707;28;19925;-46
2022/03/11 08:36:01;;;;;;;;;;;;;;;;;;5017479;28;19918;-50
2022/03/11 08:38:26;;;;;;;;;;;;;;;;;;5015437;28;20384;-49
2022/03/11 08:40:51;;;;;;;;;;;;;;;;;;5015410;28;19974;-47
2022/03/11 08:43:16;;;;;;;;;;;;;;;;;;5012725;28;20638;-49
2022/03/11 08:45:41;;;;;;;;;;;;;;;;;;5014212;28;20417;-49
2022/03/11 08:48:07;;;;;;;;;;;;;;;;;;5016464;28;20467;-51
2022/03/11 08:50:33;;;;;;;;;;;;;;;;;;5015943;28;19921;-49
2022/03/11 08:52:58;;;;;;;;;;;;;;;;;;5015695;28;19937;-54
2022/03/11 08:55:23;;;;;;;;;;;;;;;;;;5013869;28;19932;-53
2022/03/11 08:57:52;;;;;;;;;;;;;;;;;;5014001;28;20443;-50
2022/03/11 09:00:17;;;;;;;;;;;;;;;;;;5012970;28;20462;-50
2022/03/11 09:02:42;;;;;;;;;;;;;;;;;;5014359;28;20008;-49
2022/03/11 09:05:07;;;;;;;;;;;;;;;;;;5011695;28;20062;-52
2022/03/11 09:07:32;;;;;;;;;;;;;;;;;;5016784;28;19918;-50
2022/03/11 09:09:57;;;;;;;;;;;;;;;;;;5015642;28;19921;-51
2022/03/11 09:12:22;;;;;;;;;;;;;;;;;;5015662;28;20635;-48
2022/03/11 09:14:48;;;;;;;;;;;;;;;;;;5015207;28;19921;-48
2022/03/11 09:17:13;;;;;;;;;;;;;;;;;;5014572;28;20376;-52
2022/03/11 09:19:38;;;;;;;;;;;;;;;;;;5011931;28;20021;-49
2022/03/11 09:22:03;;;;;;;;;;;;;;;;;;5011922;28;20008;-51
2022/03/11 09:24:28;;;;;;;;;;;;;;;;;;5009470;28;19921;-53
2022/03/11 09:26:53;;;;;;;;;;;;;;;;;;5015778;28;19953;-51
2022/03/11 09:29:19;;;;;;;;;;;;;;;;;;5017423;28;20277;-52
2022/03/11 09:31:44;;;;;;;;;;;;;;;;;;5015831;28;19925;-54
2022/03/11 09:34:09;;;;;;;;;;;;;;;;;;5011196;28;19921;-51
2022/03/11 09:36:34;;;;;;;;;;;;;;;;;;5013239;28;19980;-49
2022/03/11 09:38:59;;;;;;;;;;;;;;;;;;5017442;28;20372;-49
2022/03/11 09:41:24;;;;;;;;;;;;;;;;;;5014348;28;19927;-50
2022/03/11 09:43:50;;;;;;;;;;;;;;;;;;5013977;28;19988;-51
2022/03/11 09:46:15;;;;;;;;;;;;;;;;;;5015234;28;20016;-53
2022/03/11 09:48:40;;;;;;;;;;;;;;;;;;5013465;28;19922;-55
2022/03/11 09:51:05;;;;;;;;;;;;;;;;;;5011447;28;20247;-55
2022/03/11 09:53:30;;;;;;;;;;;;;;;;;;5008461;28;19995;-55
2022/03/11 09:55:55;;;;;;;;;;;;;;;;;;5016471;28;20015;-55
2022/03/11 09:58:21;;;;;;;;;;;;;;;;;;5016300;28;19917;-53
2022/03/11 10:00:46;;;;;;;;;;;;;;;;;;5015121;28;19943;-54
2022/03/11 10:03:11;;;;;;;;;;;;;;;;;;5012725;28;19925;-54
2022/03/11 10:05:36;;;;;;;;;;;;;;;;;;5012712;28;19928;-56
2022/03/11 10:08:01;;;;;;;;;;;;;;;;;;5014740;28;20363;-55
2022/03/11 10:10:28;;;;;;;;;;;;;;;;;;5012805;28;19975;-52
2022/03/11 10:12:53;;;;;;;;;;;;;;;;;;5011351;28;19922;-48
2022/03/11 10:15:24;;;;;;;;;;;;;;;;;;5013684;28;20446;-50
2022/03/11 10:17:49;;;;;;;;;;;;;;;;;;5013615;28;20371;-47
2022/03/11 10:20:14;;;;;;;;;;;;;;;;;;5012405;28;19922;-48
2022/03/11 10:22:40;;;;;;;;;;;;;;;;;;5014159;28;19939;-50
2022/03/11 10:25:05;;;;;;;;;;;;;;;;;;5017369;28;19971;-48
2022/03/11 10:27:30;;;;;;;;;;;;;;;;;;5014884;28;19917;-50
2022/03/11 10:29:56;;;;;;;;;;;;;;;;;;5018640;28;19921;-48
2022/03/11 10:32:21;;;;;;;;;;;;;;;;;;5019106;28;19932;-45
2022/03/11 10:34:46;;;;;;;;;;;;;;;;;;5021167;28;19983;-53
2022/03/11 10:37:15;;;;;;;;;;;;;;;;;;5017850;28;19921;-55
2022/03/11 10:39:40;;;;;;;;;;;;;;;;;;5021406;28;20064;-54
2022/03/11 10:42:06;;;;;;;;;;;;;;;;;;5018550;28;20450;-51
2022/03/11 10:44:31;;;;;;;;;;;;;;;;;;5012756;28;19925;-51
2022/03/11 10:46:56;;;;;;;;;;;;;;;;;;5012023;28;20388;-51
2022/03/11 10:49:21;;;;;;;;;;;;;;;;;;5015942;28;19929;-54
2022/03/11 10:51:46;;;;;;;;;;;;;;;;;;5016529;28;19929;-52
2022/03/11 10:54:11;;;;;;;;;;;;;;;;;;5017619;28;19925;-52
2022/03/11 10:56:39;;;;;;;;;;;;;;;;;;5017920;28;20149;-52
2022/03/11 10:59:04;;;;;;;;;;;;;;;;;;5017520;28;19921;-48
2022/03/11 11:01:29;;;;;;;;;;;;;;;;;;5017212;28;19928;-51
2022/03/11 11:03:54;;;;;;;;;;;;;;;;;;5014987;28;20455;-54
2022/03/11 11:06:20;;;;;;;;;;;;;;;;;;5012929;28;19952;-55
2022/03/11 11:08:45;;;;;;;;;;;;;;;;;;5013055;28;19921;-51
2022/03/11 11:11:10;;;;;;;;;;;;;;;;;;5015789;28;19925;-53
2022/03/11 11:13:35;;;;;;;;;;;;;;;;;;5015136;28;20027;-54
2022/03/11 11:16:00;;;;;;;;;;;;;;;;;;5013334;28;19921;-55
2022/03/11 11:18:28;;;;;;;;;;;;;;;;;;5016402;28;19921;-55
2022/03/11 11:20:53;;;;;;;;;;;;;;;;;;5010068;28;19951;-55
2022/03/11 11:23:18;;;;;;;;;;;;;;;;;;5014938;28;19992;-55
2022/03/11 11:25:44;;;;;;;;;;;;;;;;;;5017745;28;19928;-54
2022/03/11 11:28:09;;;;;;;;;;;;;;;;;;5015523;28;19953;-54
2022/03/11 11:30:34;;;;;;;;;;;;;;;;;;5011513;28;19921;-54
2022/03/11 11:32:59;;;;;;;;;;;;;;;;;;5013438;28;19922;-55
2022/03/11 11:35:27;;;;;;;;;;;;;;;;;;5014694;28;19924;-57
2022/03/11 11:37:52;;;;;;;;;;;;;;;;;;5015876;28;19921;-57
2022/03/11 11:40:17;;;;;;;;;;;;;;;;;;5014764;28;20683;-57
2022/03/11 11:42:42;;;;;;;;;;;;;;;;;;5012206;28;19921;-58
2022/03/11 11:45:08;;;;;;;;;;;;;;;;;;5013857;28;20487;-57
2022/03/11 11:47:33;;;;;;;;;;;;;;;;;;5013312;28;19972;-57
2022/03/11 11:49:58;;;;;;;;;;;;;;;;;;5012861;28;19921;-57
2022/03/11 11:52:23;;;;;;;;;;;;;;;;;;5011886;28;20411;-57
2022/03/11 11:54:48;;;;;;;;;;;;;;;;;;5018544;28;19925;-57
2022/03/11 11:57:13;;;;;;;;;;;;;;;;;;5012000;28;19927;-57
2022/03/11 11:59:41;;;;;;;;;;;;;;;;;;5014781;28;19921;-58
2022/03/11 12:02:06;;;;;;;;;;;;;;;;;;5013542;28;20111;-57
2022/03/11 12:04:32;;;;;;;;;;;;;;;;;;5012579;28;20368;-57
2022/03/11 12:06:57;;;;;;;;;;;;;;;;;;5009839;28;19988;-58
2022/03/11 12:09:22;;;;;;;;;;;;;;;;;;5012903;28;19989;-57
2022/03/11 12:11:47;;;;;;;;;;;;;;;;;;5014219;28;19925;-58
2022/03/11 12:14:12;;;;;;;;;;;;;;;;;;5015076;28;19975;-57
2022/03/11 12:16:38;;;;;;;;;;;;;;;;;;5016324;28;20579;-53
2022/03/11 12:19:03;;;;;;;;;;;;;;;;;;5017034;28;19972;-56
2022/03/11 12:21:29;;;;;;;;;;;;;;;;;;5013211;28;19928;-55
2022/03/11 12:23:54;;;;;;;;;;;;;;;;;;5016353;28;20032;-56
2022/03/11 12:26:19;;;;;;;;;;;;;;;;;;5015453;28;19929;-57
2022/03/11 12:28:45;;;;;;;;;;;;;;;;;;5012829;28;20388;-56
2022/03/11 12:31:10;;;;;;;;;;;;;;;;;;5013693;28;20052;-56
2022/03/11 12:33:36;;;;;;;;;;;;;;;;;;5018530;28;19925;-57
2022/03/11 12:36:01;;;;;;;;;;;;;;;;;;5013134;28;19924;-56
2022/03/11 12:38:26;;;;;;;;;;;;;;;;;;5016805;28;19917;-57
2022/03/11 12:40:51;;;;;;;;;;;;;;;;;;5013607;28;20433;-57
2022/03/11 12:43:16;;;;;;;;;;;;;;;;;;5014611;28;19925;-57
2022/03/11 12:45:42;;;;;;;;;;;;;;;;;;5010345;28;19918;-56
2022/03/11 12:48:07;;;;;;;;;;;;;;;;;;5017225;28;20391;-57
2022/03/11 12:50:32;;;;;;;;;;;;;;;;;;5013513;28;19920;-57
2022/03/11 12:52:57;;;;;;;;;;;;;;;;;;5011160;28;20027;-56
2022/03/11 12:55:23;;;;;;;;;;;;;;;;;;5013746;28;20015;-57
2022/03/11 12:57:48;;;;;;;;;;;;;;;;;;5015351;28;20019;-57
2022/03/11 13:00:13;;;;;;;;;;;;;;;;;;5015895;28;19987;-56
2022/03/11 13:02:38;;;;;;;;;;;;;;;;;;5012216;28;20111;-56
2022/03/11 13:05:03;;;;;;;;;;;;;;;;;;5014898;28;19921;-57
2022/03/11 13:07:29;;;;;;;;;;;;;;;;;;5011141;28;19952;-56
2022/03/11 13:09:54;;;;;;;;;;;;;;;;;;5014836;28;19944;-57
2022/03/11 13:12:19;;;;;;;;;;;;;;;;;;5012357;28;19966;-57
2022/03/11 13:14:44;;;;;;;;;;;;;;;;;;5015743;28;19933;-57
2022/03/11 13:17:10;;;;;;;;;;;;;;;;;;5014975;28;19978;-57
2022/03/11 13:19:35;;;;;;;;;;;;;;;;;;5015528;28;19925;-57
2022/03/11 13:22:00;;;;;;;;;;;;;;;;;;5013597;28;19929;-57
2022/03/11 13:24:25;;;;;;;;;;;;;;;;;;5012458;28;19917;-57
2022/03/11 13:26:50;;;;;;;;;;;;;;;;;;5011418;28;20411;-57
2022/03/11 13:29:15;;;;;;;;;;;;;;;;;;5019070;28;19921;-57
2022/03/11 13:31:41;;;;;;;;;;;;;;;;;;5010272;28;19925;-57
2022/03/11 13:34:07;;;;;;;;;;;;;;;;;;5013142;28;20309;-57
2022/03/11 13:36:32;;;;;;;;;;;;;;;;;;5014907;28;20566;-57
2022/03/11 13:38:57;;;;;;;;;;;;;;;;;;5013672;28;20012;-57
2022/03/11 13:41:24;;;;;;;;;;;;;;;;;;5017808;28;19929;-57
2022/03/11 13:43:49;;;;;;;;;;;;;;;;;;5011619;28;19948;-57
2022/03/11 13:46:14;;;;;;;;;;;;;;;;;;5016015;28;19913;-56
2022/03/11 13:48:39;;;;;;;;;;;;;;;;;;5011396;28;19920;-55
2022/03/11 13:51:04;;;;;;;;;;;;;;;;;;5018249;28;20451;-58
2022/03/11 13:53:30;;;;;;;;;;;;;;;;;;5014444;28;19961;-56
2022/03/11 13:55:57;;;;;;;;;;;;;;;;;;5012283;28;19950;-57
2022/03/11 13:58:22;;;;;;;;;;;;;;;;;;5010445;28;19917;-57
2022/03/11 14:00:48;;;;;;;;;;;;;;;;;;5013090;28;19995;-58
2022/03/11 14:03:13;;;;;;;;;;;;;;;;;;5012535;28;19996;-57
2022/03/11 14:05:38;;;;;;;;;;;;;;;;;;5015073;28;20589;-57
2022/03/11 14:08:05;;;;;;;;;;;;;;;;;;5015231;28;20446;-57
2022/03/11 14:10:30;;;;;;;;;;;;;;;;;;5009344;28;19962;-57
2022/03/11 14:12:55;;;;;;;;;;;;;;;;;;5014422;28;19940;-58
2022/03/11 14:15:20;;;;;;;;;;;;;;;;;;5012559;28;19925;-57
2022/03/11 14:17:46;;;;;;;;;;;;;;;;;;5029074;28;20368;-57
2022/03/11 14:20:11;;;;;;;;;;;;;;;;;;5014576;28;19914;-57
2022/03/11 14:22:37;;;;;;;;;;;;;;;;;;5016682;28;20475;-58
2022/03/11 14:25:02;;;;;;;;;;;;;;;;;;5006789;28;20551;-57
2022/03/11 14:27:27;;;;;;;;;;;;;;;;;;5012356;28;20702;-57
2022/03/11 14:29:52;;;;;;;;;;;;;;;;;;5016911;28;20381;-58
2022/03/11 14:32:18;;;;;;;;;;;;;;;;;;5015334;28;19921;-57
2022/03/11 14:34:43;;;;;;;;;;;;;;;;;;5013841;28;19932;-58
2022/03/11 14:37:08;;;;;;;;;;;;;;;;;;5015048;28;19917;-58
2022/03/11 14:39:33;;;;;;;;;;;;;;;;;;5016107;28;19984;-57
2022/03/11 14:41:58;;;;;;;;;;;;;;;;;;5002952;28;20360;-57
2022/03/11 14:44:23;;;;;;;;;;;;;;;;;;5015281;28;19918;-57
2022/03/11 14:46:49;;;;;;;;;;;;;;;;;;5014879;28;19917;-57
2022/03/11 14:49:14;;;;;;;;;;;;;;;;;;5015880;28;20003;-58
2022/03/11 14:51:41;;;;;;;;;;;;;;;;;;5012605;28;20314;-57
2022/03/11 14:54:06;;;;;;;;;;;;;;;;;;5010827;28;20020;-57
2022/03/11 14:56:31;;;;;;;;;;;;;;;;;;5014694;28;20515;-57
2022/03/11 14:58:56;;;;;;;;;;;;;;;;;;5013764;28;19917;-57
2022/03/11 15:01:21;;;;;;;;;;;;;;;;;;5013506;28;19971;-56
2022/03/11 15:03:46;;;;;;;;;;;;;;;;;;5014157;28;20011;-57
2022/03/11 15:06:11;;;;;;;;;;;;;;;;;;5014133;28;19928;-57
2022/03/11 15:08:37;;;;;;;;;;;;;;;;;;5013233;28;19933;-56
2022/03/11 15:11:02;;;;;;;;;;;;;;;;;;5010478;28;20617;-56
2022/03/11 15:13:27;;;;;;;;;;;;;;;;;;5009424;28;19988;-56
2022/03/11 15:15:52;;;;;;;;;;;;;;;;;;5014519;28;20465;-56
2022/03/11 15:18:17;;;;;;;;;;;;;;;;;;5013509;28;19921;-56
2022/03/11 15:20:43;;;;;;;;;;;;;;;;;;5014649;28;20062;-56
2022/03/11 15:23:08;;;;;;;;;;;;;;;;;;5015532;28;20465;-57
2022/03/11 15:25:33;;;;;;;;;;;;;;;;;;5013351;28;19917;-56
2022/03/11 15:27:58;;;;;;;;;;;;;;;;;;5015378;28;19968;-55
2022/03/11 15:30:23;;;;;;;;;;;;;;;;;;5014621;28;19913;-56
2022/03/11 15:32:51;;;;;;;;;;;;;;;;;;5012768;28;20603;-54
2022/03/11 15:35:16;;;;;;;;;;;;;;;;;;5015249;28;20419;-56
2022/03/11 15:37:41;;;;;;;;;;;;;;;;;;5014061;28;19921;-56
2022/03/11 15:40:06;;;;;;;;;;;;;;;;;;5015652;28;19928;-55
2022/03/11 15:42:31;;;;;;;;;;;;;;;;;;5012975;28;20040;-55
2022/03/11 15:44:57;;;;;;;;;;;;;;;;;;5013823;28;19925;-56
2022/03/11 15:47:22;;;;;;;;;;;;;;;;;;5016249;28;19929;-55
2022/03/11 15:49:47;;;;;;;;;;;;;;;;;;5015440;28;19921;-56
2022/03/11 15:52:12;;;;;;;;;;;;;;;;;;5015591;28;19944;-56
2022/03/11 15:54:37;;;;;;;;;;;;;;;;;;5013977;28;19929;-56
2022/03/11 15:57:02;;;;;;;;;;;;;;;;;;5014971;28;19927;-56
2022/03/11 15:59:28;;;;;;;;;;;;;;;;;;5014004;28;19940;-56
2022/03/11 16:01:53;;;;;;;;;;;;;;;;;;5014986;28;19924;-54
2022/03/11 16:04:18;;;;;;;;;;;;;;;;;;5015142;28;19969;-56
2022/03/11 16:06:43;;;;;;;;;;;;;;;;;;5014869;28;19921;-60
2022/03/11 16:09:08;;;;;;;;;;;;;;;;;;5014289;28;19921;-56
2022/03/11 16:11:33;;;;;;;;;;;;;;;;;;5010617;28;19925;-54
2022/03/11 16:13:59;;;;;;;;;;;;;;;;;;5010761;28;19930;-55
2022/03/11 16:16:25;;;;;;;;;;;;;;;;;;5014636;28;20704;-56
2022/03/11 16:18:50;;;;;;;;;;;;;;;;;;5013391;28;20020;-54
2022/03/11 16:21:15;;;;;;;;;;;;;;;;;;5012368;28;20555;-52
2022/03/11 16:23:40;;;;;;;;;;;;;;;;;;5012320;28;19997;-53
2022/03/11 16:26:06;;;;;;;;;;;;;;;;;;5012637;28;20645;-56
2022/03/11 16:28:31;;;;;;;;;;;;;;;;;;5011939;28;19948;-54
2022/03/11 16:30:56;;;;;;;;;;;;;;;;;;5010703;28;20429;-53
2022/03/11 16:33:21;;;;;;;;;;;;;;;;;;5014398;28;19932;-55
2022/03/11 16:35:48;;;;;;;;;;;;;;;;;;5012688;28;20377;-55
2022/03/11 16:38:13;;;;;;;;;;;;;;;;;;5014129;28;19925;-53
2022/03/11 16:40:39;;;;;;;;;;;;;;;;;;5010662;28;19925;-55